sensor_id;sensor_type;location;lat;lon;timestamp;P1;durP1;ratioP1;P2;durP2;ratioP2
23578;SDS011;11967;50.852;4.400;2023-03-11T00:00:13;13.35;;;4.32;;
23578;SDS011;11967;50.852;4.400;2023-03-11T00:02:45;8.60;;;3.30;;
23578;SDS011;11967;50.852;4.400;2023-03-11T00:05:19;9.48;;;3.22;;
23578;SDS011;11967;50.852;4.400;2023-03-11T00:07:47;8.77;;;3.30;;
23578;SDS011;11967;50.852;4.400;2023-03-11T00:10:18;9.85;;;3.50;;
23578;SDS011;11967;50.852;4.400;2023-03-11T00:12:54;12.80;;;4.00;;
23578;SDS011;11967;50.852;4.400;2023-03-11T00:15:20;7.47;;;3.20;;
23578;SDS011;11967;50.852;4.400;2023-03-11T00:17:46;12.98;;;3.38;;
23578;SDS011;11967;50.852;4.400;2023-03-11T00:20:29;11.80;;;3.10;;
23578;SDS011;11967;50.852;4.400;2023-03-11T00:22:57;11.77;;;3.00;;
23578;SDS011;11967;50.852;4.400;2023-03-11T00:25:24;9.90;;;2.97;;
23578;SDS011;11967;50.852;4.400;2023-03-11T00:27:52;9.70;;;3.30;;
23578;SDS011;11967;50.852;4.400;2023-03-11T00:30:18;9.55;;;2.53;;
23578;SDS011;11967;50.852;4.400;2023-03-11T00:32:47;10.80;;;3.08;;
23578;SDS011;11967;50.852;4.400;2023-03-11T00:35:15;8.18;;;2.80;;
23578;SDS011;11967;50.852;4.400;2023-03-11T00:37:44;11.05;;;3.05;;
23578;SDS011;11967;50.852;4.400;2023-03-11T00:40:14;9.45;;;3.10;;
23578;SDS011;11967;50.852;4.400;2023-03-11T00:42:42;6.93;;;2.50;;
23578;SDS011;11967;50.852;4.400;2023-03-11T00:45:07;10.13;;;2.65;;
23578;SDS011;11967;50.852;4.400;2023-03-11T00:47:33;13.70;;;3.20;;
23578;SDS011;11967;50.852;4.400;2023-03-11T00:49:59;9.45;;;2.75;;
23578;SDS011;11967;50.852;4.400;2023-03-11T00:52:25;7.28;;;3.20;;
23578;SDS011;11967;50.852;4.400;2023-03-11T00:54:50;8.35;;;3.10;;
23578;SDS011;11967;50.852;4.400;2023-03-11T00:57:16;7.80;;;2.50;;
23578;SDS011;11967;50.852;4.400;2023-03-11T00:59:41;9.02;;;2.40;;
23578;SDS011;11967;50.852;4.400;2023-03-11T01:02:07;9.18;;;2.60;;
23578;SDS011;11967;50.852;4.400;2023-03-11T01:04:33;12.65;;;3.00;;
23578;SDS011;11967;50.852;4.400;2023-03-11T01:06:58;11.65;;;2.65;;
23578;SDS011;11967;50.852;4.400;2023-03-11T01:09:24;8.90;;;2.88;;
23578;SDS011;11967;50.852;4.400;2023-03-11T01:11:50;9.73;;;2.42;;
23578;SDS011;11967;50.852;4.400;2023-03-11T01:14:16;12.55;;;3.10;;
23578;SDS011;11967;50.852;4.400;2023-03-11T01:16:41;12.68;;;4.20;;
23578;SDS011;11967;50.852;4.400;2023-03-11T01:19:07;9.30;;;3.70;;
23578;SDS011;11967;50.852;4.400;2023-03-11T01:21:33;10.18;;;3.35;;
23578;SDS011;11967;50.852;4.400;2023-03-11T01:23:58;11.60;;;2.95;;
23578;SDS011;11967;50.852;4.400;2023-03-11T01:26:24;12.82;;;3.45;;
23578;SDS011;11967;50.852;4.400;2023-03-11T01:28:49;11.25;;;2.97;;
23578;SDS011;11967;50.852;4.400;2023-03-11T01:31:15;13.32;;;3.15;;
23578;SDS011;11967;50.852;4.400;2023-03-11T01:33:41;7.40;;;3.10;;
23578;SDS011;11967;50.852;4.400;2023-03-11T01:36:07;9.38;;;2.78;;
23578;SDS011;11967;50.852;4.400;2023-03-11T01:38:33;10.77;;;2.78;;
23578;SDS011;11967;50.852;4.400;2023-03-11T01:40:58;14.02;;;3.08;;
23578;SDS011;11967;50.852;4.400;2023-03-11T01:48:48;5.70;;;2.67;;
23578;SDS011;11967;50.852;4.400;2023-03-11T01:51:18;15.73;;;3.90;;
23578;SDS011;11967;50.852;4.400;2023-03-11T01:53:58;12.15;;;3.80;;
23578;SDS011;11967;50.852;4.400;2023-03-11T01:56:28;16.25;;;4.07;;
23578;SDS011;11967;50.852;4.400;2023-03-11T01:58:54;12.98;;;3.78;;
23578;SDS011;11967;50.852;4.400;2023-03-11T02:01:20;15.63;;;4.05;;
23578;SDS011;11967;50.852;4.400;2023-03-11T02:03:47;16.20;;;4.00;;
23578;SDS011;11967;50.852;4.400;2023-03-11T02:06:16;9.77;;;3.83;;
23578;SDS011;11967;50.852;4.400;2023-03-11T02:08:44;17.42;;;4.15;;
23578;SDS011;11967;50.852;4.400;2023-03-11T02:11:12;10.27;;;3.83;;
23578;SDS011;11967;50.852;4.400;2023-03-11T02:13:41;14.68;;;4.32;;
23578;SDS011;11967;50.852;4.400;2023-03-11T02:16:08;15.68;;;4.13;;
23578;SDS011;11967;50.852;4.400;2023-03-11T02:18:35;11.02;;;3.70;;
23578;SDS011;11967;50.852;4.400;2023-03-11T02:26:55;14.18;;;4.03;;
23578;SDS011;11967;50.852;4.400;2023-03-11T02:29:28;17.33;;;3.80;;
23578;SDS011;11967;50.852;4.400;2023-03-11T02:31:57;13.13;;;3.88;;
23578;SDS011;11967;50.852;4.400;2023-03-11T02:34:29;11.48;;;3.65;;
23578;SDS011;11967;50.852;4.400;2023-03-11T02:36:56;11.02;;;3.75;;
23578;SDS011;11967;50.852;4.400;2023-03-11T02:39:29;19.73;;;3.83;;
23578;SDS011;11967;50.852;4.400;2023-03-11T02:42:04;15.23;;;4.20;;
23578;SDS011;11967;50.852;4.400;2023-03-11T02:44:37;10.30;;;3.50;;
23578;SDS011;11967;50.852;4.400;2023-03-11T02:47:06;17.42;;;4.20;;
23578;SDS011;11967;50.852;4.400;2023-03-11T02:49:33;13.40;;;4.15;;
23578;SDS011;11967;50.852;4.400;2023-03-11T02:51:59;10.30;;;3.83;;
23578;SDS011;11967;50.852;4.400;2023-03-11T02:54:25;13.38;;;4.20;;
23578;SDS011;11967;50.852;4.400;2023-03-11T02:56:51;15.43;;;4.35;;
23578;SDS011;11967;50.852;4.400;2023-03-11T02:59:16;14.10;;;4.18;;
23578;SDS011;11967;50.852;4.400;2023-03-11T03:01:43;17.40;;;4.10;;
23578;SDS011;11967;50.852;4.400;2023-03-11T03:04:08;12.57;;;3.78;;
23578;SDS011;11967;50.852;4.400;2023-03-11T03:06:34;10.48;;;3.90;;
23578;SDS011;11967;50.852;4.400;2023-03-11T03:08:59;11.25;;;3.78;;
23578;SDS011;11967;50.852;4.400;2023-03-11T03:11:25;14.70;;;4.30;;
23578;SDS011;11967;50.852;4.400;2023-03-11T03:13:51;16.48;;;4.18;;
23578;SDS011;11967;50.852;4.400;2023-03-11T03:16:17;16.83;;;4.07;;
23578;SDS011;11967;50.852;4.400;2023-03-11T03:18:43;12.30;;;3.58;;
23578;SDS011;11967;50.852;4.400;2023-03-11T03:21:08;10.93;;;3.92;;
23578;SDS011;11967;50.852;4.400;2023-03-11T03:23:34;11.43;;;3.10;;
23578;SDS011;11967;50.852;4.400;2023-03-11T03:26:02;7.95;;;3.50;;
23578;SDS011;11967;50.852;4.400;2023-03-11T03:28:29;14.23;;;3.70;;
23578;SDS011;11967;50.852;4.400;2023-03-11T03:30:54;15.57;;;3.72;;
23578;SDS011;11967;50.852;4.400;2023-03-11T03:33:20;11.98;;;3.50;;
23578;SDS011;11967;50.852;4.400;2023-03-11T03:35:46;16.65;;;3.92;;
23578;SDS011;11967;50.852;4.400;2023-03-11T03:38:12;13.02;;;3.95;;
23578;SDS011;11967;50.852;4.400;2023-03-11T03:40:37;10.32;;;3.28;;
23578;SDS011;11967;50.852;4.400;2023-03-11T03:43:03;8.82;;;2.90;;
23578;SDS011;11967;50.852;4.400;2023-03-11T03:49:13;12.35;;;3.30;;
23578;SDS011;11967;50.852;4.400;2023-03-11T03:51:39;12.43;;;3.38;;
23578;SDS011;11967;50.852;4.400;2023-03-11T03:54:04;17.45;;;3.83;;
23578;SDS011;11967;50.852;4.400;2023-03-11T03:56:31;12.15;;;3.65;;
23578;SDS011;11967;50.852;4.400;2023-03-11T03:58:57;13.43;;;3.20;;
23578;SDS011;11967;50.852;4.400;2023-03-11T04:01:22;14.73;;;4.00;;
23578;SDS011;11967;50.852;4.400;2023-03-11T04:03:48;11.88;;;4.43;;
23578;SDS011;11967;50.852;4.400;2023-03-11T04:06:15;12.57;;;3.58;;
23578;SDS011;11967;50.852;4.400;2023-03-11T04:08:42;12.38;;;3.58;;
23578;SDS011;11967;50.852;4.400;2023-03-11T04:11:11;12.45;;;3.17;;
23578;SDS011;11967;50.852;4.400;2023-03-11T04:13:37;14.45;;;3.63;;
23578;SDS011;11967;50.852;4.400;2023-03-11T04:16:04;9.93;;;4.00;;
23578;SDS011;11967;50.852;4.400;2023-03-11T04:18:31;11.75;;;3.38;;
23578;SDS011;11967;50.852;4.400;2023-03-11T04:20:57;12.73;;;3.65;;
23578;SDS011;11967;50.852;4.400;2023-03-11T04:23:28;15.75;;;3.47;;
23578;SDS011;11967;50.852;4.400;2023-03-11T04:25:54;16.45;;;3.60;;
23578;SDS011;11967;50.852;4.400;2023-03-11T04:28:19;11.38;;;3.17;;
23578;SDS011;11967;50.852;4.400;2023-03-11T04:30:45;16.63;;;4.15;;
23578;SDS011;11967;50.852;4.400;2023-03-11T04:33:10;11.50;;;3.60;;
23578;SDS011;11967;50.852;4.400;2023-03-11T04:35:37;11.18;;;3.40;;
23578;SDS011;11967;50.852;4.400;2023-03-11T04:38:03;13.07;;;3.67;;
23578;SDS011;11967;50.852;4.400;2023-03-11T04:40:29;15.27;;;4.28;;
23578;SDS011;11967;50.852;4.400;2023-03-11T04:42:54;9.90;;;3.65;;
23578;SDS011;11967;50.852;4.400;2023-03-11T04:45:20;12.40;;;3.50;;
23578;SDS011;11967;50.852;4.400;2023-03-11T04:47:46;9.85;;;3.75;;
23578;SDS011;11967;50.852;4.400;2023-03-11T04:50:13;10.23;;;3.53;;
23578;SDS011;11967;50.852;4.400;2023-03-11T04:52:39;12.30;;;3.63;;
23578;SDS011;11967;50.852;4.400;2023-03-11T04:55:05;12.80;;;3.50;;
23578;SDS011;11967;50.852;4.400;2023-03-11T04:57:31;11.35;;;3.60;;
23578;SDS011;11967;50.852;4.400;2023-03-11T04:59:57;14.23;;;3.40;;
23578;SDS011;11967;50.852;4.400;2023-03-11T05:02:22;15.73;;;3.67;;
23578;SDS011;11967;50.852;4.400;2023-03-11T05:04:48;12.65;;;3.22;;
23578;SDS011;11967;50.852;4.400;2023-03-11T05:07:14;16.45;;;4.10;;
23578;SDS011;11967;50.852;4.400;2023-03-11T05:09:39;14.68;;;4.00;;
23578;SDS011;11967;50.852;4.400;2023-03-11T05:12:05;10.48;;;3.83;;
23578;SDS011;11967;50.852;4.400;2023-03-11T05:14:31;11.57;;;3.70;;
23578;SDS011;11967;50.852;4.400;2023-03-11T05:16:56;9.05;;;3.25;;
23578;SDS011;11967;50.852;4.400;2023-03-11T05:19:22;16.83;;;3.63;;
23578;SDS011;11967;50.852;4.400;2023-03-11T05:21:58;8.85;;;3.10;;
23578;SDS011;11967;50.852;4.400;2023-03-11T05:24:25;11.07;;;3.20;;
23578;SDS011;11967;50.852;4.400;2023-03-11T05:26:51;8.32;;;3.53;;
23578;SDS011;11967;50.852;4.400;2023-03-11T05:29:17;13.30;;;3.60;;
23578;SDS011;11967;50.852;4.400;2023-03-11T05:31:42;15.13;;;4.00;;
23578;SDS011;11967;50.852;4.400;2023-03-11T05:34:08;12.93;;;3.90;;
23578;SDS011;11967;50.852;4.400;2023-03-11T05:36:34;14.98;;;3.80;;
23578;SDS011;11967;50.852;4.400;2023-03-11T05:38:59;10.88;;;3.60;;
23578;SDS011;11967;50.852;4.400;2023-03-11T05:41:25;11.45;;;4.20;;
23578;SDS011;11967;50.852;4.400;2023-03-11T05:43:51;15.63;;;4.10;;
23578;SDS011;11967;50.852;4.400;2023-03-11T05:46:16;14.43;;;3.65;;
23578;SDS011;11967;50.852;4.400;2023-03-11T05:48:46;14.93;;;4.10;;
23578;SDS011;11967;50.852;4.400;2023-03-11T05:51:12;10.30;;;4.07;;
23578;SDS011;11967;50.852;4.400;2023-03-11T05:53:40;10.18;;;4.22;;
23578;SDS011;11967;50.852;4.400;2023-03-11T05:56:12;10.35;;;3.80;;
23578;SDS011;11967;50.852;4.400;2023-03-11T05:58:38;11.40;;;4.45;;
23578;SDS011;11967;50.852;4.400;2023-03-11T06:01:11;13.07;;;4.50;;
23578;SDS011;11967;50.852;4.400;2023-03-11T06:03:38;8.95;;;4.03;;
23578;SDS011;11967;50.852;4.400;2023-03-11T06:06:05;12.32;;;4.03;;
23578;SDS011;11967;50.852;4.400;2023-03-11T06:08:33;12.73;;;3.80;;
23578;SDS011;11967;50.852;4.400;2023-03-11T06:11:00;14.52;;;3.95;;
23578;SDS011;11967;50.852;4.400;2023-03-11T06:13:26;11.13;;;4.05;;
23578;SDS011;11967;50.852;4.400;2023-03-11T06:15:52;10.65;;;3.80;;
23578;SDS011;11967;50.852;4.400;2023-03-11T06:18:18;16.15;;;4.20;;
23578;SDS011;11967;50.852;4.400;2023-03-11T06:20:43;10.57;;;3.83;;
23578;SDS011;11967;50.852;4.400;2023-03-11T06:23:09;15.80;;;4.07;;
23578;SDS011;11967;50.852;4.400;2023-03-11T06:25:34;12.88;;;3.90;;
23578;SDS011;11967;50.852;4.400;2023-03-11T06:28:00;10.82;;;4.30;;
23578;SDS011;11967;50.852;4.400;2023-03-11T06:30:26;13.35;;;4.43;;
23578;SDS011;11967;50.852;4.400;2023-03-11T06:32:51;14.55;;;4.03;;
23578;SDS011;11967;50.852;4.400;2023-03-11T06:35:20;13.18;;;4.15;;
23578;SDS011;11967;50.852;4.400;2023-03-11T06:37:45;12.68;;;4.30;;
23578;SDS011;11967;50.852;4.400;2023-03-11T06:40:11;13.38;;;4.55;;
23578;SDS011;11967;50.852;4.400;2023-03-11T06:42:37;12.63;;;4.15;;
23578;SDS011;11967;50.852;4.400;2023-03-11T06:45:02;30.98;;;16.40;;
23578;SDS011;11967;50.852;4.400;2023-03-11T06:47:28;17.38;;;6.47;;
23578;SDS011;11967;50.852;4.400;2023-03-11T06:49:54;11.95;;;4.40;;
23578;SDS011;11967;50.852;4.400;2023-03-11T06:52:19;9.75;;;3.83;;
23578;SDS011;11967;50.852;4.400;2023-03-11T06:54:45;10.20;;;4.20;;
23578;SDS011;11967;50.852;4.400;2023-03-11T06:57:11;14.20;;;4.30;;
23578;SDS011;11967;50.852;4.400;2023-03-11T06:59:36;13.38;;;4.05;;
23578;SDS011;11967;50.852;4.400;2023-03-11T07:02:03;15.52;;;5.07;;
23578;SDS011;11967;50.852;4.400;2023-03-11T07:04:30;17.77;;;7.32;;
23578;SDS011;11967;50.852;4.400;2023-03-11T07:06:57;18.73;;;7.43;;
23578;SDS011;11967;50.852;4.400;2023-03-11T07:09:22;47.28;;;24.55;;
23578;SDS011;11967;50.852;4.400;2023-03-11T07:11:49;23.40;;;9.35;;
23578;SDS011;11967;50.852;4.400;2023-03-11T07:14:16;14.27;;;5.68;;
23578;SDS011;11967;50.852;4.400;2023-03-11T07:16:42;13.90;;;5.47;;
23578;SDS011;11967;50.852;4.400;2023-03-11T07:19:09;10.50;;;4.70;;
23578;SDS011;11967;50.852;4.400;2023-03-11T07:21:35;13.30;;;4.93;;
23578;SDS011;11967;50.852;4.400;2023-03-11T07:24:01;19.20;;;7.50;;
23578;SDS011;11967;50.852;4.400;2023-03-11T07:26:45;95.28;;;44.58;;
23578;SDS011;11967;50.852;4.400;2023-03-11T07:29:11;87.15;;;41.58;;
23578;SDS011;11967;50.852;4.400;2023-03-11T07:31:38;43.08;;;17.48;;
23578;SDS011;11967;50.852;4.400;2023-03-11T07:34:06;33.92;;;10.43;;
23578;SDS011;11967;50.852;4.400;2023-03-11T07:36:35;22.13;;;7.10;;
23578;SDS011;11967;50.852;4.400;2023-03-11T07:39:04;19.30;;;5.53;;
23578;SDS011;11967;50.852;4.400;2023-03-11T07:41:30;14.32;;;5.22;;
23578;SDS011;11967;50.852;4.400;2023-03-11T07:43:58;29.83;;;6.50;;
23578;SDS011;11967;50.852;4.400;2023-03-11T07:46:25;29.73;;;6.05;;
23578;SDS011;11967;50.852;4.400;2023-03-11T07:48:52;29.58;;;6.90;;
23578;SDS011;11967;50.852;4.400;2023-03-11T07:51:19;17.27;;;5.30;;
23578;SDS011;11967;50.852;4.400;2023-03-11T07:53:46;25.70;;;6.18;;
23578;SDS011;11967;50.852;4.400;2023-03-11T07:56:14;25.75;;;5.85;;
23578;SDS011;11967;50.852;4.400;2023-03-11T07:58:41;22.67;;;8.18;;
23578;SDS011;11967;50.852;4.400;2023-03-11T08:01:08;31.58;;;7.63;;
23578;SDS011;11967;50.852;4.400;2023-03-11T08:03:36;29.17;;;6.50;;
23578;SDS011;11967;50.852;4.400;2023-03-11T08:06:10;26.80;;;6.40;;
23578;SDS011;11967;50.852;4.400;2023-03-11T08:08:37;28.27;;;7.05;;
23578;SDS011;11967;50.852;4.400;2023-03-11T08:11:03;43.28;;;11.07;;
23578;SDS011;11967;50.852;4.400;2023-03-11T08:13:28;32.80;;;8.48;;
23578;SDS011;11967;50.852;4.400;2023-03-11T08:15:54;22.77;;;7.50;;
23578;SDS011;11967;50.852;4.400;2023-03-11T08:18:19;43.92;;;11.75;;
23578;SDS011;11967;50.852;4.400;2023-03-11T08:20:45;228.68;;;106.78;;
23578;SDS011;11967;50.852;4.400;2023-03-11T08:23:11;268.60;;;131.82;;
23578;SDS011;11967;50.852;4.400;2023-03-11T08:25:37;150.40;;;72.88;;
23578;SDS011;11967;50.852;4.400;2023-03-11T08:28:05;104.45;;;44.28;;
23578;SDS011;11967;50.852;4.400;2023-03-11T08:30:32;53.83;;;22.88;;
23578;SDS011;11967;50.852;4.400;2023-03-11T08:32:58;31.42;;;9.90;;
23578;SDS011;11967;50.852;4.400;2023-03-11T08:35:24;24.33;;;6.97;;
23578;SDS011;11967;50.852;4.400;2023-03-11T08:37:52;20.85;;;4.75;;
23578;SDS011;11967;50.852;4.400;2023-03-11T08:40:17;16.75;;;4.80;;
23578;SDS011;11967;50.852;4.400;2023-03-11T08:42:43;15.50;;;4.95;;
23578;SDS011;11967;50.852;4.400;2023-03-11T08:45:09;21.35;;;4.53;;
23578;SDS011;11967;50.852;4.400;2023-03-11T08:47:36;13.98;;;4.93;;
23578;SDS011;11967;50.852;4.400;2023-03-11T08:50:03;22.52;;;4.88;;
23578;SDS011;11967;50.852;4.400;2023-03-11T08:52:31;22.73;;;4.95;;
23578;SDS011;11967;50.852;4.400;2023-03-11T08:54:56;18.58;;;4.15;;
23578;SDS011;11967;50.852;4.400;2023-03-11T08:57:22;26.73;;;5.65;;
23578;SDS011;11967;50.852;4.400;2023-03-11T08:59:48;28.60;;;4.78;;
23578;SDS011;11967;50.852;4.400;2023-03-11T09:02:13;17.90;;;4.75;;
23578;SDS011;11967;50.852;4.400;2023-03-11T09:04:39;96.15;;;43.13;;
23578;SDS011;11967;50.852;4.400;2023-03-11T09:07:04;170.98;;;72.25;;
23578;SDS011;11967;50.852;4.400;2023-03-11T09:09:30;181.88;;;87.57;;
23578;SDS011;11967;50.852;4.400;2023-03-11T09:11:56;135.55;;;58.85;;
23578;SDS011;11967;50.852;4.400;2023-03-11T09:14:21;32.17;;;13.98;;
23578;SDS011;11967;50.852;4.400;2023-03-11T09:16:47;19.88;;;7.78;;
23578;SDS011;11967;50.852;4.400;2023-03-11T09:19:13;14.15;;;2.75;;
23578;SDS011;11967;50.852;4.400;2023-03-11T09:21:38;12.43;;;2.20;;
23578;SDS011;11967;50.852;4.400;2023-03-11T09:24:04;27.50;;;11.25;;
23578;SDS011;11967;50.852;4.400;2023-03-11T09:26:31;84.88;;;38.00;;
23578;SDS011;11967;50.852;4.400;2023-03-11T09:28:56;46.63;;;21.08;;
23578;SDS011;11967;50.852;4.400;2023-03-11T09:31:22;14.88;;;4.85;;
23578;SDS011;11967;50.852;4.400;2023-03-11T09:33:48;31.92;;;14.95;;
23578;SDS011;11967;50.852;4.400;2023-03-11T09:36:15;23.05;;;10.32;;
23578;SDS011;11967;50.852;4.400;2023-03-11T09:38:42;18.25;;;4.32;;
23578;SDS011;11967;50.852;4.400;2023-03-11T09:41:13;12.73;;;3.20;;
23578;SDS011;11967;50.852;4.400;2023-03-11T09:43:45;14.77;;;3.42;;
23578;SDS011;11967;50.852;4.400;2023-03-11T09:46:24;18.95;;;3.47;;
23578;SDS011;11967;50.852;4.400;2023-03-11T09:49:14;22.35;;;3.53;;
23578;SDS011;11967;50.852;4.400;2023-03-11T09:52:05;16.60;;;3.10;;
23578;SDS011;11967;50.852;4.400;2023-03-11T09:54:36;20.25;;;2.92;;
23578;SDS011;11967;50.852;4.400;2023-03-11T09:57:17;22.42;;;3.83;;
23578;SDS011;11967;50.852;4.400;2023-03-11T09:59:49;25.23;;;5.22;;
23578;SDS011;11967;50.852;4.400;2023-03-11T10:02:16;28.02;;;4.35;;
23578;SDS011;11967;50.852;4.400;2023-03-11T10:04:48;18.80;;;4.15;;
23578;SDS011;11967;50.852;4.400;2023-03-11T10:07:27;24.00;;;5.68;;
23578;SDS011;11967;50.852;4.400;2023-03-11T10:09:58;32.55;;;4.15;;
23578;SDS011;11967;50.852;4.400;2023-03-11T10:15:03;51.60;;;6.90;;
23578;SDS011;11967;50.852;4.400;2023-03-11T10:20:39;127.88;;;13.25;;
23578;SDS011;11967;50.852;4.400;2023-03-11T10:23:18;86.03;;;10.38;;
23578;SDS011;11967;50.852;4.400;2023-03-11T10:26:22;84.43;;;9.55;;
23578;SDS011;11967;50.852;4.400;2023-03-11T10:31:55;199.43;;;16.10;;
23578;SDS011;11967;50.852;4.400;2023-03-11T10:34:55;99.65;;;9.77;;
23578;SDS011;11967;50.852;4.400;2023-03-11T10:37:52;49.95;;;7.55;;
23578;SDS011;11967;50.852;4.400;2023-03-11T10:40:27;44.75;;;6.97;;
23578;SDS011;11967;50.852;4.400;2023-03-11T10:42:54;40.60;;;6.55;;
23578;SDS011;11967;50.852;4.400;2023-03-11T10:45:22;35.78;;;4.85;;
23578;SDS011;11967;50.852;4.400;2023-03-11T10:47:49;45.53;;;6.10;;
23578;SDS011;11967;50.852;4.400;2023-03-11T10:50:15;93.72;;;30.58;;
23578;SDS011;11967;50.852;4.400;2023-03-11T10:53:02;42.13;;;15.85;;
23578;SDS011;11967;50.852;4.400;2023-03-11T10:55:32;16.15;;;5.15;;
23578;SDS011;11967;50.852;4.400;2023-03-11T10:58:05;99.60;;;12.82;;
23578;SDS011;11967;50.852;4.400;2023-03-11T11:00:35;59.15;;;8.52;;
23578;SDS011;11967;50.852;4.400;2023-03-11T11:03:01;81.90;;;10.43;;
23578;SDS011;11967;50.852;4.400;2023-03-11T11:05:34;116.57;;;12.23;;
23578;SDS011;11967;50.852;4.400;2023-03-11T11:08:01;89.38;;;11.95;;
23578;SDS011;11967;50.852;4.400;2023-03-11T11:10:30;57.00;;;7.78;;
23578;SDS011;11967;50.852;4.400;2023-03-11T11:12:57;67.75;;;8.25;;
23578;SDS011;11967;50.852;4.400;2023-03-11T11:23:30;31.67;;;5.97;;
23578;SDS011;11967;50.852;4.400;2023-03-11T11:26:19;58.30;;;7.70;;
23578;SDS011;11967;50.852;4.400;2023-03-11T11:31:48;20.73;;;3.83;;
23578;SDS011;11967;50.852;4.400;2023-03-11T11:34:32;49.17;;;6.93;;
23578;SDS011;11967;50.852;4.400;2023-03-11T11:36:59;64.85;;;19.67;;
23578;SDS011;11967;50.852;4.400;2023-03-11T11:39:29;260.67;;;108.05;;
23578;SDS011;11967;50.852;4.400;2023-03-11T11:42:15;61.90;;;27.30;;
23578;SDS011;11967;50.852;4.400;2023-03-11T11:44:42;59.75;;;16.58;;
23578;SDS011;11967;50.852;4.400;2023-03-11T11:47:22;23.17;;;5.95;;
23578;SDS011;11967;50.852;4.400;2023-03-11T11:49:53;36.45;;;5.22;;
23578;SDS011;11967;50.852;4.400;2023-03-11T11:52:24;35.83;;;8.50;;
23578;SDS011;11967;50.852;4.400;2023-03-11T11:57:25;127.38;;;13.88;;
23578;SDS011;11967;50.852;4.400;2023-03-11T11:59:51;25.67;;;4.53;;
23578;SDS011;11967;50.852;4.400;2023-03-11T12:02:40;30.98;;;4.80;;
23578;SDS011;11967;50.852;4.400;2023-03-11T12:05:20;40.10;;;6.25;;
23578;SDS011;11967;50.852;4.400;2023-03-11T12:18:26;79.18;;;10.15;;
23578;SDS011;11967;50.852;4.400;2023-03-11T12:21:17;99.10;;;11.88;;
23578;SDS011;11967;50.852;4.400;2023-03-11T12:26:34;38.78;;;6.95;;
23578;SDS011;11967;50.852;4.400;2023-03-11T12:29:06;96.55;;;30.77;;
23578;SDS011;11967;50.852;4.400;2023-03-11T12:31:48;43.70;;;6.57;;
23578;SDS011;11967;50.852;4.400;2023-03-11T12:34:15;94.57;;;12.35;;
23578;SDS011;11967;50.852;4.400;2023-03-11T12:36:44;107.22;;;32.60;;
23578;SDS011;11967;50.852;4.400;2023-03-11T12:39:31;25.33;;;6.75;;
23578;SDS011;11967;50.852;4.400;2023-03-11T12:44:36;33.72;;;12.30;;
23578;SDS011;11967;50.852;4.400;2023-03-11T12:49:32;11.07;;;3.03;;
23578;SDS011;11967;50.852;4.400;2023-03-11T12:52:01;15.50;;;4.63;;
23578;SDS011;11967;50.852;4.400;2023-03-11T12:54:36;15.95;;;3.10;;
23578;SDS011;11967;50.852;4.400;2023-03-11T12:59:52;22.67;;;5.00;;
23578;SDS011;11967;50.852;4.400;2023-03-11T13:05:37;13.60;;;3.35;;
23578;SDS011;11967;50.852;4.400;2023-03-11T13:08:26;58.13;;;11.07;;
23578;SDS011;11967;50.852;4.400;2023-03-11T13:16:42;60.67;;;6.20;;
23578;SDS011;11967;50.852;4.400;2023-03-11T13:21:56;32.42;;;4.07;;
23578;SDS011;11967;50.852;4.400;2023-03-11T13:32:23;15.70;;;3.67;;
23578;SDS011;11967;50.852;4.400;2023-03-11T13:45:38;11.40;;;2.50;;
23578;SDS011;11967;50.852;4.400;2023-03-11T13:48:15;6.43;;;2.33;;
23578;SDS011;11967;50.852;4.400;2023-03-11T13:50:57;31.92;;;10.45;;
23578;SDS011;11967;50.852;4.400;2023-03-11T13:53:32;43.75;;;17.92;;
23578;SDS011;11967;50.852;4.400;2023-03-11T13:56:03;19.90;;;7.53;;
23578;SDS011;11967;50.852;4.400;2023-03-11T13:58:29;21.10;;;6.00;;
23578;SDS011;11967;50.852;4.400;2023-03-11T14:00:56;27.48;;;7.95;;
23578;SDS011;11967;50.852;4.400;2023-03-11T14:03:25;29.00;;;6.70;;
23578;SDS011;11967;50.852;4.400;2023-03-11T14:05:57;39.42;;;9.57;;
23578;SDS011;11967;50.852;4.400;2023-03-11T14:10:59;47.80;;;8.80;;
23578;SDS011;11967;50.852;4.400;2023-03-11T14:13:40;22.35;;;5.82;;
23578;SDS011;11967;50.852;4.400;2023-03-11T14:16:18;8.85;;;3.30;;
23578;SDS011;11967;50.852;4.400;2023-03-11T14:18:47;20.30;;;5.00;;
23578;SDS011;11967;50.852;4.400;2023-03-11T14:21:25;18.70;;;3.95;;
23578;SDS011;11967;50.852;4.400;2023-03-11T14:23:52;8.40;;;2.53;;
23578;SDS011;11967;50.852;4.400;2023-03-11T14:26:23;5.88;;;2.22;;
23578;SDS011;11967;50.852;4.400;2023-03-11T14:28:55;8.65;;;2.42;;
23578;SDS011;11967;50.852;4.400;2023-03-11T14:31:45;8.63;;;2.95;;
23578;SDS011;11967;50.852;4.400;2023-03-11T14:34:18;9.98;;;3.15;;
23578;SDS011;11967;50.852;4.400;2023-03-11T14:39:34;6.60;;;2.45;;
23578;SDS011;11967;50.852;4.400;2023-03-11T14:42:06;15.75;;;7.07;;
23578;SDS011;11967;50.852;4.400;2023-03-11T14:44:39;9.98;;;2.70;;
23578;SDS011;11967;50.852;4.400;2023-03-11T14:49:39;20.17;;;4.30;;
23578;SDS011;11967;50.852;4.400;2023-03-11T14:52:29;14.52;;;3.08;;
23578;SDS011;11967;50.852;4.400;2023-03-11T14:55:19;14.65;;;2.78;;
23578;SDS011;11967;50.852;4.400;2023-03-11T14:57:54;17.08;;;3.20;;
23578;SDS011;11967;50.852;4.400;2023-03-11T15:00:32;24.15;;;4.35;;
23578;SDS011;11967;50.852;4.400;2023-03-11T15:03:01;10.80;;;3.45;;
23578;SDS011;11967;50.852;4.400;2023-03-11T15:08:17;9.63;;;2.55;;
23578;SDS011;11967;50.852;4.400;2023-03-11T15:13:36;12.82;;;2.85;;
23578;SDS011;11967;50.852;4.400;2023-03-11T15:16:06;19.00;;;3.53;;
23578;SDS011;11967;50.852;4.400;2023-03-11T15:18:46;5.55;;;1.90;;
23578;SDS011;11967;50.852;4.400;2023-03-11T15:23:43;5.50;;;1.70;;
23578;SDS011;11967;50.852;4.400;2023-03-11T15:26:19;7.88;;;2.03;;
23578;SDS011;11967;50.852;4.400;2023-03-11T15:28:55;12.85;;;2.83;;
23578;SDS011;11967;50.852;4.400;2023-03-11T15:31:28;5.18;;;2.05;;
23578;SDS011;11967;50.852;4.400;2023-03-11T15:34:09;7.78;;;2.13;;
23578;SDS011;11967;50.852;4.400;2023-03-11T15:41:41;12.95;;;2.47;;
23578;SDS011;11967;50.852;4.400;2023-03-11T15:44:41;10.05;;;2.40;;
23578;SDS011;11967;50.852;4.400;2023-03-11T15:49:40;6.00;;;1.95;;
23578;SDS011;11967;50.852;4.400;2023-03-11T15:52:09;11.57;;;2.50;;
23578;SDS011;11967;50.852;4.400;2023-03-11T15:54:35;8.52;;;2.13;;
23578;SDS011;11967;50.852;4.400;2023-03-11T15:57:01;7.38;;;3.05;;
23578;SDS011;11967;50.852;4.400;2023-03-11T15:59:31;7.40;;;1.90;;
23578;SDS011;11967;50.852;4.400;2023-03-11T16:01:59;6.38;;;1.60;;
23578;SDS011;11967;50.852;4.400;2023-03-11T16:04:24;6.18;;;2.08;;
23578;SDS011;11967;50.852;4.400;2023-03-11T16:06:50;6.70;;;1.73;;
23578;SDS011;11967;50.852;4.400;2023-03-11T16:09:17;9.85;;;2.70;;
23578;SDS011;11967;50.852;4.400;2023-03-11T16:11:43;7.93;;;2.47;;
23578;SDS011;11967;50.852;4.400;2023-03-11T16:14:13;12.18;;;2.60;;
23578;SDS011;11967;50.852;4.400;2023-03-11T16:16:41;8.25;;;2.22;;
23578;SDS011;11967;50.852;4.400;2023-03-11T16:19:07;9.35;;;2.05;;
23578;SDS011;11967;50.852;4.400;2023-03-11T16:21:34;7.95;;;2.75;;
23578;SDS011;11967;50.852;4.400;2023-03-11T16:24:03;9.15;;;2.38;;
23578;SDS011;11967;50.852;4.400;2023-03-11T16:26:31;9.85;;;2.55;;
23578;SDS011;11967;50.852;4.400;2023-03-11T16:28:58;9.98;;;2.72;;
23578;SDS011;11967;50.852;4.400;2023-03-11T16:31:24;11.23;;;2.83;;
23578;SDS011;11967;50.852;4.400;2023-03-11T16:33:49;9.15;;;2.30;;
23578;SDS011;11967;50.852;4.400;2023-03-11T16:36:15;5.85;;;2.10;;
23578;SDS011;11967;50.852;4.400;2023-03-11T16:38:42;9.85;;;2.60;;